createdAt,value
2018-07-31T17:42:04.404Z,60.20
2018-07-31T17:44:33.169Z,61.10
2018-07-31T17:47:02.471Z,61.40
2018-07-31T17:49:31.298Z,61.00
2018-07-31T17:51:59.974Z,61.00
2018-07-31T17:54:28.469Z,61.70
2018-07-31T17:56:57.074Z,62.00
2018-07-31T17:59:25.625Z,62.80
2018-07-31T18:01:54.911Z,62.70
2018-07-31T18:04:24.214Z,61.60
2018-07-31T18:06:53.211Z,62.40
2018-07-31T18:09:21.774Z,62.20
2018-07-31T18:11:50.905Z,63.10
2018-07-31T18:14:20.018Z,63.00
2018-07-31T18:16:48.513Z,63.40
2018-07-31T18:19:17.098Z,63.90
2018-07-31T18:21:45.716Z,63.60
2018-07-31T18:24:15.044Z,63.80
2018-07-31T18:26:44.418Z,63.70
2018-07-31T18:29:13.024Z,63.10
2018-07-31T18:31:41.588Z,63.70
2018-07-31T18:34:10.238Z,64.20
2018-07-31T18:36:38.822Z,64.60
2018-07-31T18:39:10.252Z,63.10
2018-07-31T18:41:39.375Z,63.30
2018-07-31T18:44:08.276Z,63.80
2018-07-31T18:46:36.934Z,64.90
2018-07-31T18:49:05.975Z,62.90
2018-07-31T18:54:03.138Z,63.60
2018-07-31T18:56:32.413Z,64.00
2018-07-31T18:59:01.002Z,64.50
2018-07-31T19:03:57.853Z,65.20
2018-07-31T19:06:27.056Z,66.30
2018-07-31T19:08:55.734Z,66.10
2018-07-31T19:11:24.387Z,66.30
2018-07-31T19:13:53.404Z,66.60
2018-07-31T19:16:22.039Z,68.00
2018-07-31T19:18:50.586Z,68.70
2018-07-31T19:21:19.317Z,67.90
2018-07-31T19:23:48.122Z,68.60
2018-07-31T19:26:16.718Z,68.70
2018-07-31T19:28:45.247Z,70.00
2018-07-31T19:31:13.843Z,70.20
2018-07-31T19:33:42.419Z,70.20
2018-07-31T19:36:11.022Z,71.50
2018-07-31T19:38:39.591Z,71.90
2018-07-31T19:41:08.187Z,73.30
2018-07-31T19:43:36.727Z,72.70
2018-07-31T19:46:05.244Z,72.20
2018-07-31T19:48:33.756Z,72.50
2018-07-31T19:51:03.177Z,72.10
2018-07-31T19:53:32.409Z,71.70
2018-07-31T19:56:01.682Z,71.70
2018-07-31T20:00:59.018Z,72.80
2018-07-31T20:03:27.568Z,72.20
2018-07-31T20:05:56.157Z,72.00
2018-07-31T20:08:24.767Z,72.30
2018-07-31T20:10:54.025Z,72.50
2018-07-31T20:13:22.706Z,72.50
2018-07-31T20:15:51.271Z,73.00
2018-07-31T20:18:19.870Z,72.90
2018-07-31T20:20:48.510Z,73.40
2018-07-31T20:23:17.091Z,74.10
2018-07-31T20:25:45.620Z,76.00
2018-07-31T20:28:14.283Z,76.40
2018-07-31T20:30:42.906Z,77.00
2018-07-31T20:33:11.417Z,77.40
2018-07-31T20:35:39.997Z,77.20
2018-07-31T20:38:08.565Z,76.90
2018-07-31T20:40:37.174Z,77.40
2018-07-31T20:43:05.839Z,77.50
2018-07-31T20:45:34.434Z,78.40
2018-07-31T20:48:03.538Z,78.90
2018-07-31T20:53:01.057Z,80.00
2018-07-31T20:55:29.712Z,80.50
2018-07-31T20:57:58.372Z,81.10
2018-07-31T21:00:27.088Z,81.30
2018-07-31T21:02:55.802Z,80.60
2018-07-31T21:05:24.521Z,80.90
2018-07-31T21:07:53.437Z,81.80
2018-07-31T21:10:22.287Z,81.80
2018-07-31T21:12:50.818Z,82.10
2018-07-31T21:15:19.978Z,81.80
2018-07-31T21:17:48.634Z,82.00
2018-07-31T21:20:17.233Z,81.90
2018-07-31T21:22:46.326Z,82.50
2018-07-31T21:25:14.941Z,83.00
2018-07-31T21:27:43.477Z,83.40
2018-07-31T21:30:12.117Z,83.50
2018-07-31T21:32:40.714Z,83.00
2018-07-31T21:35:09.976Z,84.00
2018-07-31T21:37:53.042Z,85.00
2018-07-31T21:40:21.955Z,84.90
2018-07-31T21:42:52.566Z,84.70
2018-07-31T21:45:24.993Z,85.20
2018-07-31T21:47:54.890Z,85.50
2018-07-31T21:50:23.372Z,87.10
2018-07-31T21:52:53.262Z,86.20
2018-07-31T21:55:23.290Z,86.60
2018-07-31T21:57:52.005Z,86.60
2018-07-31T22:00:20.626Z,88.00
2018-07-31T22:02:49.956Z,86.30
2018-07-31T22:05:19.046Z,86.90
2018-07-31T22:07:55.689Z,86.60
2018-07-31T22:10:24.916Z,86.50
2018-07-31T22:12:53.594Z,87.20
2018-07-31T22:15:22.849Z,87.40
2018-07-31T22:17:52.064Z,88.20
2018-07-31T22:23:17.113Z,87.50
2018-07-31T22:25:51.661Z,87.40
2018-07-31T22:36:09.314Z,87.40
2018-07-31T22:41:06.832Z,88.10
2018-07-31T22:43:53.740Z,88.10
2018-07-31T22:46:32.206Z,89.40
2018-07-31T22:49:00.726Z,90.00
2018-07-31T22:51:29.307Z,90.50
2018-07-31T22:53:57.789Z,90.80
2018-07-31T22:56:26.375Z,91.00
2018-07-31T22:58:55.505Z,91.90
2018-07-31T23:01:28.808Z,91.90
2018-07-31T23:03:58.083Z,93.30
2018-07-31T23:06:30.252Z,94.80
2018-07-31T23:08:59.612Z,94.70
2018-07-31T23:14:01.759Z,96.10
2018-07-31T23:16:30.980Z,98.50
2018-07-31T23:19:00.896Z,99.20
2018-07-31T23:21:29.426Z,99.50
2018-07-31T23:23:58.577Z,99.90
2018-07-31T23:26:38.462Z,99.90
2018-07-31T23:29:06.956Z,99.90
2018-07-31T23:31:41.416Z,99.80
2018-07-31T23:34:11.013Z,98.90
2018-07-31T23:36:43.113Z,99.10
2018-07-31T23:39:12.510Z,99.90
2018-07-31T23:41:42.460Z,99.90
2018-07-31T23:44:11.562Z,99.90
2018-07-31T23:46:40.179Z,99.90
2018-07-31T23:49:08.817Z,99.90
2018-07-31T23:51:37.552Z,99.90
2018-07-31T23:54:06.158Z,99.90
2018-07-31T23:56:34.739Z,99.90
2018-07-31T23:59:04.249Z,99.90
